createdAt,value
2023-05-05T00:00:00.702Z,9.43
2023-05-05T00:02:30.962Z,9.36
2023-05-05T00:05:00.796Z,9.29
2023-05-05T00:07:30.637Z,9.20
2023-05-05T00:10:00.316Z,9.15
2023-05-05T00:12:30.477Z,9.20
2023-05-05T00:15:00.483Z,9.10
2023-05-05T00:17:30.608Z,9.04
2023-05-05T00:20:00.376Z,8.98
2023-05-05T00:22:30.466Z,8.93
2023-05-05T00:25:00.931Z,8.87
2023-05-05T00:27:30.430Z,8.83
2023-05-05T00:30:00.128Z,8.74
2023-05-05T00:32:29.969Z,8.70
2023-05-05T00:35:00.543Z,8.75
2023-05-05T00:37:33.097Z,8.71
2023-05-05T00:40:02.627Z,8.64
2023-05-05T00:42:52.544Z,8.64
2023-05-05T00:45:22.759Z,8.67
2023-05-05T00:48:01.954Z,8.62
2023-05-05T00:50:32.384Z,8.67
2023-05-05T00:53:06.782Z,8.61
2023-05-05T00:55:37.372Z,8.55
2023-05-05T00:58:08.286Z,8.54
2023-05-05T01:00:38.429Z,8.54
2023-05-05T01:03:08.730Z,8.51
2023-05-05T01:07:01.206Z,8.46
2023-05-05T01:10:19.662Z,8.36
2023-05-05T01:13:40.705Z,8.30
2023-05-05T01:17:04.569Z,8.18
2023-05-05T01:21:09.102Z,8.12
2023-05-05T01:24:18.602Z,8.09
2023-05-05T01:27:27.889Z,8.10
2023-05-05T01:30:44.975Z,8.07
2023-05-05T01:33:26.498Z,8.08
2023-05-05T01:36:10.619Z,7.95
2023-05-05T01:38:47.416Z,7.96
2023-05-05T01:41:22.327Z,7.88
2023-05-05T01:43:58.671Z,7.85
2023-05-05T01:46:31.209Z,7.81
2023-05-05T01:49:02.252Z,7.80
2023-05-05T01:51:36.745Z,7.80
2023-05-05T01:54:10.557Z,7.82
2023-05-05T01:56:44.697Z,7.81
2023-05-05T01:59:17.974Z,7.80
2023-05-05T02:01:52.291Z,7.74
2023-05-05T02:04:26.944Z,7.70
2023-05-05T02:07:01.013Z,7.63
2023-05-05T02:09:31.691Z,7.54
2023-05-05T02:12:04.051Z,7.51
2023-05-05T02:14:37.157Z,7.46
2023-05-05T02:17:09.877Z,7.43
2023-05-05T02:19:47.855Z,7.35
2023-05-05T02:22:18.225Z,7.29
2023-05-05T02:24:48.340Z,7.25
2023-05-05T02:27:24.496Z,7.19
2023-05-05T02:30:08.694Z,7.13
2023-05-05T02:32:48.104Z,7.17
2023-05-05T02:35:28.848Z,7.15
2023-05-05T02:38:06.339Z,7.11
2023-05-05T02:40:43.735Z,7.06
2023-05-05T02:43:23.328Z,7.04
2023-05-05T02:45:53.748Z,7.01
2023-05-05T02:48:24.401Z,7.03
2023-05-05T02:50:54.518Z,7.07
2023-05-05T02:53:29.070Z,7.04
2023-05-05T02:56:26.769Z,6.98
2023-05-05T02:59:16.434Z,6.91
2023-05-05T03:02:23.253Z,6.87
2023-05-05T03:05:13.516Z,6.81
2023-05-05T03:08:10.996Z,6.76
2023-05-05T03:11:04.432Z,6.76
2023-05-05T03:13:37.966Z,6.87
2023-05-05T03:16:11.816Z,6.84
2023-05-05T03:18:47.169Z,6.83
2023-05-05T03:21:19.110Z,6.78
2023-05-05T03:23:49.665Z,6.75
2023-05-05T03:26:19.880Z,6.72
2023-05-05T03:28:49.975Z,6.82
2023-05-05T03:31:20.207Z,6.89
2023-05-05T03:33:50.374Z,6.85
2023-05-05T03:36:20.458Z,6.90
2023-05-05T03:38:50.773Z,6.89
2023-05-05T03:41:23.828Z,6.85
2023-05-05T03:43:54.639Z,6.83
2023-05-05T03:46:24.725Z,6.80
2023-05-05T03:48:57.286Z,6.76
2023-05-05T03:51:28.255Z,6.78
2023-05-05T03:53:58.467Z,6.76
2023-05-05T03:56:28.614Z,6.72
2023-05-05T03:58:58.817Z,6.70
2023-05-05T04:01:30.139Z,6.74
2023-05-05T04:04:00.264Z,6.75
2023-05-05T04:06:31.993Z,6.80
2023-05-05T04:09:02.247Z,6.85
2023-05-05T04:11:32.480Z,6.90
2023-05-05T04:14:02.701Z,6.89
2023-05-05T04:16:33.031Z,7.00
2023-05-05T04:19:04.126Z,7.06
2023-05-05T04:21:35.428Z,7.21
2023-05-05T04:24:06.343Z,7.22
2023-05-05T04:26:36.616Z,7.23
2023-05-05T04:29:06.954Z,7.25
2023-05-05T04:31:37.108Z,7.35
2023-05-05T04:34:07.231Z,7.51
2023-05-05T04:36:37.824Z,7.79
2023-05-05T04:39:08.826Z,7.69
2023-05-05T04:41:38.918Z,7.75
2023-05-05T04:44:07.384Z,7.92
2023-05-05T04:46:35.815Z,8.07
2023-05-05T04:49:05.928Z,8.11
2023-05-05T04:51:35.660Z,8.40
2023-05-05T04:54:04.237Z,8.29
2023-05-05T04:56:32.591Z,8.51
2023-05-05T04:59:00.893Z,8.55
2023-05-05T05:01:29.361Z,8.54
2023-05-05T05:03:57.934Z,8.69
2023-05-05T05:06:26.148Z,8.69
2023-05-05T05:08:54.533Z,9.05
2023-05-05T05:11:23.118Z,9.14
2023-05-05T05:13:51.359Z,9.10
2023-05-05T05:16:19.908Z,9.13
2023-05-05T05:18:48.302Z,9.11
2023-05-05T05:21:16.822Z,9.35
2023-05-05T05:23:45.042Z,9.32
2023-05-05T05:26:13.554Z,9.75
2023-05-05T05:28:41.915Z,9.88
2023-05-05T05:31:10.243Z,10.14
2023-05-05T05:33:38.658Z,10.21
2023-05-05T05:36:07.245Z,10.39
2023-05-05T05:38:35.621Z,10.66
2023-05-05T05:41:07.862Z,10.63
2023-05-05T05:43:37.914Z,10.74
2023-05-05T05:46:09.186Z,10.66
2023-05-05T05:48:39.587Z,10.52
2023-05-05T05:51:09.556Z,10.71
2023-05-05T05:53:39.286Z,11.00
2023-05-05T05:56:10.021Z,11.00
2023-05-05T05:58:40.728Z,11.35
2023-05-05T06:01:11.050Z,11.52
2023-05-05T06:03:41.126Z,11.74
2023-05-05T06:06:11.178Z,11.96
2023-05-05T06:08:40.860Z,12.19
2023-05-05T06:11:10.833Z,12.61
2023-05-05T06:13:40.525Z,12.68
2023-05-05T06:16:10.476Z,12.59
2023-05-05T06:18:40.261Z,12.91
2023-05-05T06:21:10.029Z,13.31
2023-05-05T06:23:40.023Z,13.66
2023-05-05T06:26:09.670Z,13.52
2023-05-05T06:28:39.583Z,13.89
2023-05-05T06:31:09.779Z,14.14
2023-05-05T06:33:39.511Z,14.24
2023-05-05T06:36:09.551Z,13.76
2023-05-05T06:38:39.663Z,13.24
2023-05-05T06:41:09.444Z,13.16
2023-05-05T06:43:39.842Z,13.02
2023-05-05T06:46:09.633Z,13.02
2023-05-05T06:48:39.646Z,13.15
2023-05-05T06:51:10.424Z,13.53
2023-05-05T06:53:40.214Z,13.50
2023-05-05T06:56:10.037Z,13.63
2023-05-05T06:58:39.781Z,13.78
2023-05-05T07:01:09.881Z,13.79
2023-05-05T07:03:40.025Z,13.67
2023-05-05T07:06:09.888Z,13.66
2023-05-05T07:08:38.220Z,13.63
2023-05-05T07:11:07.239Z,13.59
2023-05-05T07:13:35.092Z,13.90
2023-05-05T07:16:03.699Z,14.33
2023-05-05T07:18:31.902Z,14.96
2023-05-05T07:21:01.480Z,15.26
2023-05-05T07:23:28.720Z,15.48
2023-05-05T07:25:57.390Z,15.42
2023-05-05T07:28:25.622Z,15.53
2023-05-05T07:30:54.255Z,15.96
2023-05-05T07:33:22.751Z,16.33
2023-05-05T07:35:50.880Z,16.31
2023-05-05T07:38:19.310Z,16.35
2023-05-05T07:40:47.680Z,16.45
2023-05-05T07:43:16.166Z,16.22
2023-05-05T07:45:44.587Z,16.61
2023-05-05T07:48:12.958Z,17.01
2023-05-05T07:50:41.378Z,17.62
2023-05-05T07:53:14.226Z,17.66
2023-05-05T07:55:45.260Z,17.77
2023-05-05T07:58:15.005Z,17.63
2023-05-05T08:00:44.796Z,17.75
2023-05-05T08:03:14.694Z,17.67
2023-05-05T08:05:44.643Z,17.66
2023-05-05T08:08:14.506Z,17.66
2023-05-05T08:10:44.241Z,17.53
2023-05-05T08:13:14.053Z,17.52
2023-05-05T08:15:45.290Z,17.93
2023-05-05T08:18:15.606Z,18.14
2023-05-05T08:20:45.621Z,18.25
2023-05-05T08:23:15.615Z,18.09
2023-05-05T08:25:45.653Z,18.16
2023-05-05T08:28:15.434Z,17.81
2023-05-05T08:30:45.418Z,17.76
2023-05-05T08:33:15.762Z,17.67
2023-05-05T08:35:45.152Z,18.06
2023-05-05T08:38:15.448Z,17.90
2023-05-05T08:40:45.819Z,17.94
2023-05-05T08:43:16.114Z,18.06
2023-05-05T08:45:47.218Z,18.10
2023-05-05T08:48:23.150Z,18.16
2023-05-05T08:51:01.930Z,18.31
2023-05-05T08:53:58.954Z,18.48
2023-05-05T08:56:34.518Z,18.81
2023-05-05T08:59:05.351Z,19.15
2023-05-05T09:01:36.877Z,19.09
2023-05-05T09:04:09.836Z,19.06
2023-05-05T09:06:40.619Z,18.58
2023-05-05T09:09:12.120Z,18.90
2023-05-05T09:11:45.171Z,19.00
2023-05-05T09:14:15.303Z,19.24
2023-05-05T09:16:45.755Z,19.67
2023-05-05T09:19:15.855Z,20.11
2023-05-05T09:21:49.827Z,20.30
2023-05-05T09:24:20.416Z,19.72
2023-05-05T09:26:50.749Z,19.73
2023-05-05T09:29:22.519Z,19.69
2023-05-05T09:32:08.887Z,19.45
2023-05-05T09:34:38.246Z,19.62
2023-05-05T09:37:07.883Z,19.79
2023-05-05T09:39:36.338Z,20.27
2023-05-05T09:42:05.499Z,20.08
2023-05-05T09:44:40.208Z,20.15
2023-05-05T09:47:21.946Z,20.18
2023-05-05T09:49:59.286Z,20.12
2023-05-05T09:52:30.631Z,20.17
2023-05-05T09:55:00.558Z,20.06
2023-05-05T09:57:34.335Z,20.04
2023-05-05T10:00:06.558Z,20.03
2023-05-05T10:02:39.606Z,20.33
2023-05-05T10:05:18.009Z,19.96
2023-05-05T10:07:48.360Z,20.25
2023-05-05T10:10:19.356Z,20.39
2023-05-05T10:12:51.392Z,20.43
2023-05-05T10:15:23.060Z,20.06
2023-05-05T10:18:07.003Z,19.81
2023-05-05T10:20:42.119Z,20.03
2023-05-05T10:23:20.655Z,20.06
2023-05-05T10:26:04.992Z,19.99
2023-05-05T10:28:51.141Z,19.92
2023-05-05T10:31:49.276Z,19.88
2023-05-05T10:34:51.527Z,19.93
2023-05-05T10:37:23.288Z,20.39
2023-05-05T10:39:57.933Z,20.83
2023-05-05T10:42:28.263Z,21.16
2023-05-05T10:44:58.367Z,21.23
2023-05-05T10:47:29.507Z,21.02
2023-05-05T10:50:29.691Z,20.90
2023-05-05T10:53:24.240Z,21.01
2023-05-05T10:56:22.123Z,20.46
2023-05-05T10:58:59.617Z,20.91
2023-05-05T11:01:36.560Z,21.14
2023-05-05T11:04:23.299Z,20.76
2023-05-05T11:07:11.072Z,20.66
2023-05-05T11:10:03.661Z,20.75
2023-05-05T11:12:59.399Z,21.00
2023-05-05T11:15:29.665Z,20.83
2023-05-05T11:18:07.310Z,20.95
2023-05-05T11:20:41.003Z,20.84
2023-05-05T11:25:47.305Z,20.76
2023-05-05T11:28:31.231Z,20.85
2023-05-05T11:31:01.378Z,20.86
2023-05-05T11:33:38.760Z,21.21
2023-05-05T11:36:15.857Z,21.33
2023-05-05T11:40:03.249Z,21.44
2023-05-05T11:42:34.043Z,21.29
2023-05-05T11:45:23.561Z,21.53
2023-05-05T11:48:28.651Z,21.81
2023-05-05T11:51:02.466Z,21.88
2023-05-05T11:53:32.457Z,21.99
2023-05-05T11:56:11.195Z,21.59
2023-05-05T11:58:41.760Z,21.48
2023-05-05T12:01:13.445Z,21.27
2023-05-05T12:03:45.965Z,21.23
2023-05-05T12:06:16.155Z,21.41
2023-05-05T12:08:45.913Z,21.64
2023-05-05T12:11:16.200Z,21.90
2023-05-05T12:13:46.539Z,21.58
2023-05-05T12:16:16.862Z,21.91
2023-05-05T12:18:47.045Z,22.03
2023-05-05T12:21:19.988Z,21.33
2023-05-05T12:23:50.463Z,21.45
2023-05-05T12:26:32.095Z,21.80
2023-05-05T12:29:01.745Z,22.03
2023-05-05T12:31:42.378Z,21.61
2023-05-05T12:34:13.405Z,21.92
2023-05-05T12:36:43.141Z,22.03
2023-05-05T12:39:13.617Z,21.83
2023-05-05T12:41:43.718Z,22.08
2023-05-05T12:44:13.883Z,22.16
2023-05-05T12:46:49.471Z,22.17
2023-05-05T12:49:19.585Z,22.41
2023-05-05T12:51:57.359Z,22.03
2023-05-05T12:54:25.382Z,22.04
2023-05-05T12:57:00.035Z,22.01
2023-05-05T12:59:30.926Z,22.10
2023-05-05T13:02:01.842Z,22.04
2023-05-05T13:04:32.796Z,21.97
2023-05-05T13:07:16.497Z,22.24
2023-05-05T13:09:47.357Z,22.36
2023-05-05T13:12:22.138Z,22.57
2023-05-05T13:14:53.848Z,22.46
2023-05-05T13:17:23.925Z,22.64
2023-05-05T13:19:54.271Z,22.38
2023-05-05T13:22:24.439Z,22.79
2023-05-05T13:24:54.653Z,22.72
2023-05-05T13:27:23.090Z,22.62
2023-05-05T13:29:53.133Z,22.34
2023-05-05T13:32:23.455Z,22.41
2023-05-05T13:34:53.271Z,22.25
2023-05-05T13:37:23.150Z,22.49
2023-05-05T13:39:53.130Z,22.73
2023-05-05T13:42:22.856Z,22.45
2023-05-05T13:44:52.681Z,22.58
2023-05-05T13:47:22.506Z,22.37
2023-05-05T13:49:52.724Z,22.18
2023-05-05T13:52:22.436Z,22.38
2023-05-05T13:54:52.209Z,22.66
2023-05-05T13:57:22.192Z,22.81
2023-05-05T13:59:52.145Z,22.95
2023-05-05T14:02:21.581Z,22.77
2023-05-05T14:04:51.235Z,22.67
2023-05-05T14:07:21.582Z,22.69
2023-05-05T14:09:51.650Z,22.54
2023-05-05T14:12:21.558Z,22.48
2023-05-05T14:14:51.282Z,22.49
2023-05-05T14:17:21.014Z,22.99
2023-05-05T14:19:51.187Z,22.83
2023-05-05T14:22:21.434Z,22.70
2023-05-05T14:24:51.083Z,22.94
2023-05-05T14:27:20.922Z,22.77
2023-05-05T14:29:50.633Z,22.55
2023-05-05T14:32:20.345Z,22.66
2023-05-05T14:34:50.584Z,22.48
2023-05-05T14:37:21.038Z,22.32
2023-05-05T14:39:50.458Z,22.43
2023-05-05T14:42:20.252Z,22.24
2023-05-05T14:44:50.032Z,22.29
2023-05-05T14:47:20.008Z,22.42
2023-05-05T14:49:49.803Z,22.16
2023-05-05T14:52:19.567Z,21.91
2023-05-05T14:54:49.230Z,21.47
2023-05-05T14:57:19.083Z,21.46
2023-05-05T14:59:51.963Z,21.88
2023-05-05T15:02:21.865Z,21.96
2023-05-05T15:04:53.111Z,21.82
2023-05-05T15:07:28.430Z,22.02
2023-05-05T15:09:58.570Z,21.95
2023-05-05T15:12:28.358Z,21.69
2023-05-05T15:14:58.170Z,21.49
2023-05-05T15:17:28.744Z,21.74
2023-05-05T15:19:58.159Z,21.63
2023-05-05T15:22:27.884Z,21.86
2023-05-05T15:24:57.586Z,22.05
2023-05-05T15:27:27.699Z,22.09
2023-05-05T15:29:57.869Z,22.43
2023-05-05T15:32:28.405Z,22.23
2023-05-05T15:34:58.631Z,22.32
2023-05-05T15:37:29.093Z,22.61
2023-05-05T15:39:59.276Z,22.24
2023-05-05T15:42:31.813Z,21.89
2023-05-05T15:45:01.704Z,21.39
2023-05-05T15:47:31.250Z,21.32
2023-05-05T15:50:01.086Z,21.41
2023-05-05T15:52:31.320Z,21.55
2023-05-05T15:55:01.961Z,21.73
2023-05-05T15:57:33.357Z,21.41
2023-05-05T16:00:02.288Z,20.72
2023-05-05T16:02:32.393Z,20.44
2023-05-05T16:05:02.527Z,20.22
2023-05-05T16:07:32.275Z,19.91
2023-05-05T16:10:02.790Z,19.84
2023-05-05T16:12:32.302Z,19.55
2023-05-05T16:15:02.222Z,19.32
2023-05-05T16:17:32.055Z,19.21
2023-05-05T16:20:01.969Z,19.22
2023-05-05T16:22:31.987Z,19.24
2023-05-05T16:25:00.440Z,19.15
2023-05-05T16:27:28.990Z,18.89
2023-05-05T16:29:59.551Z,18.76
2023-05-05T16:32:28.709Z,18.69
2023-05-05T16:34:57.246Z,18.70
2023-05-05T16:37:25.574Z,18.59
2023-05-05T16:39:53.888Z,18.23
2023-05-05T16:42:22.825Z,18.26
2023-05-05T16:44:50.760Z,18.29
2023-05-05T16:47:19.182Z,17.92
2023-05-05T16:49:47.534Z,17.94
2023-05-05T16:52:16.081Z,17.93
2023-05-05T16:54:44.629Z,17.90
2023-05-05T16:57:13.788Z,17.79
2023-05-05T16:59:41.916Z,17.81
2023-05-05T17:02:09.848Z,17.83
2023-05-05T17:04:38.078Z,17.60
2023-05-05T17:07:06.572Z,17.60
2023-05-05T17:09:34.994Z,17.66
2023-05-05T17:12:05.573Z,17.70
2023-05-05T17:14:36.048Z,17.74
2023-05-05T17:17:06.228Z,17.54
2023-05-05T17:19:35.975Z,17.42
2023-05-05T17:22:05.731Z,17.42
2023-05-05T17:24:35.760Z,17.40
2023-05-05T17:27:05.267Z,17.33
2023-05-05T17:29:40.660Z,17.23
2023-05-05T17:32:10.099Z,17.16
2023-05-05T17:34:38.623Z,17.06
2023-05-05T17:37:07.043Z,17.14
2023-05-05T17:39:35.672Z,17.05
2023-05-05T17:42:04.134Z,16.92
2023-05-05T17:44:32.836Z,17.00
2023-05-05T17:47:02.980Z,16.91
2023-05-05T17:49:32.682Z,16.65
2023-05-05T17:52:01.371Z,16.52
2023-05-05T17:54:30.007Z,16.82
2023-05-05T17:56:59.773Z,16.78
2023-05-05T17:59:27.615Z,16.56
2023-05-05T18:01:56.302Z,16.74
2023-05-05T18:04:25.563Z,16.61
2023-05-05T18:06:57.653Z,16.49
2023-05-05T18:09:27.803Z,16.46
2023-05-05T18:11:57.868Z,16.45
2023-05-05T18:14:28.037Z,16.41
2023-05-05T18:16:57.784Z,16.32
2023-05-05T18:19:27.649Z,16.28
2023-05-05T18:22:00.584Z,16.22
2023-05-05T18:24:30.249Z,16.10
2023-05-05T18:27:00.063Z,16.10
2023-05-05T18:29:29.877Z,16.05
2023-05-05T18:31:59.809Z,15.92
2023-05-05T18:34:29.751Z,15.75
2023-05-05T18:37:00.650Z,15.74
2023-05-05T18:39:30.581Z,15.67
2023-05-05T18:42:00.973Z,15.78
2023-05-05T18:44:32.837Z,15.78
2023-05-05T18:47:03.150Z,15.46
2023-05-05T18:49:33.699Z,15.58
2023-05-05T18:52:03.219Z,15.51
2023-05-05T18:54:33.680Z,15.56
2023-05-05T18:57:03.605Z,15.40
2023-05-05T18:59:33.761Z,15.31
2023-05-05T19:02:03.589Z,15.34
2023-05-05T19:04:37.547Z,15.27
2023-05-05T19:07:07.710Z,15.17
2023-05-05T19:09:36.254Z,15.13
2023-05-05T19:12:04.700Z,15.04
2023-05-05T19:14:32.095Z,15.04
2023-05-05T19:17:01.646Z,14.84
2023-05-05T19:19:28.944Z,14.90
2023-05-05T19:21:58.260Z,14.72
2023-05-05T19:24:25.797Z,14.72
2023-05-05T19:26:54.257Z,14.61
2023-05-05T19:29:22.640Z,14.58
2023-05-05T19:31:51.064Z,14.57
2023-05-05T19:34:19.455Z,14.28
2023-05-05T19:36:47.852Z,14.37
2023-05-05T19:39:16.299Z,14.25
2023-05-05T19:41:44.940Z,14.15
2023-05-05T19:44:13.153Z,14.21
2023-05-05T19:46:41.625Z,14.23
2023-05-05T19:49:10.050Z,14.17
2023-05-05T19:51:38.337Z,14.20
2023-05-05T19:54:06.759Z,14.17
2023-05-05T19:56:35.304Z,14.17
2023-05-05T19:59:06.437Z,14.05
2023-05-05T20:01:35.662Z,14.01
2023-05-05T20:04:03.897Z,13.73
2023-05-05T20:06:32.981Z,13.75
2023-05-05T20:09:00.760Z,13.81
2023-05-05T20:11:29.534Z,13.70
2023-05-05T20:13:58.569Z,13.77
2023-05-05T20:16:28.681Z,13.69
2023-05-05T20:18:58.832Z,13.84
2023-05-05T20:21:29.224Z,13.87
2023-05-05T20:23:59.847Z,13.74
2023-05-05T20:26:29.977Z,13.72
2023-05-05T20:29:00.125Z,13.71
2023-05-05T20:31:30.400Z,13.69
2023-05-05T20:34:01.301Z,13.46
2023-05-05T20:36:31.468Z,13.35
2023-05-05T20:39:01.561Z,13.30
2023-05-05T20:41:31.792Z,13.12
2023-05-05T20:44:02.170Z,13.33
2023-05-05T20:46:33.561Z,13.38
2023-05-05T20:49:04.129Z,13.36
2023-05-05T20:51:35.263Z,13.44
2023-05-05T20:54:05.757Z,13.32
2023-05-05T20:56:35.847Z,13.24
2023-05-05T20:59:06.232Z,13.20
2023-05-05T21:01:36.442Z,13.20
2023-05-05T21:04:06.642Z,13.15
2023-05-05T21:06:36.739Z,12.98
2023-05-05T21:09:06.870Z,12.92
2023-05-05T21:11:37.509Z,12.97
2023-05-05T21:14:07.633Z,12.96
2023-05-05T21:16:38.358Z,12.80
2023-05-05T21:19:08.813Z,12.62
2023-05-05T21:21:38.934Z,12.61
2023-05-05T21:24:09.836Z,12.60
2023-05-05T21:26:37.551Z,12.46
2023-05-05T21:29:06.602Z,12.63
2023-05-05T21:31:34.363Z,12.41
2023-05-05T21:34:03.004Z,12.13
2023-05-05T21:36:32.012Z,12.19
2023-05-05T21:39:00.519Z,12.22
2023-05-05T21:41:28.367Z,12.20
2023-05-05T21:43:56.462Z,11.99
2023-05-05T21:46:24.953Z,11.72
2023-05-05T21:48:53.270Z,11.92
2023-05-05T21:51:23.604Z,11.82
2023-05-05T21:53:53.113Z,11.90
2023-05-05T21:56:21.582Z,11.82
2023-05-05T21:58:49.899Z,11.71
2023-05-05T22:01:18.421Z,11.59
2023-05-05T22:03:47.793Z,11.39
2023-05-05T22:06:20.552Z,11.31
2023-05-05T22:08:51.429Z,11.39
2023-05-05T22:11:21.565Z,11.30
2023-05-05T22:13:52.086Z,11.08
2023-05-05T22:16:22.207Z,11.04
2023-05-05T22:18:52.597Z,10.88
2023-05-05T22:21:22.764Z,10.90
2023-05-05T22:23:52.959Z,10.81
2023-05-05T22:26:23.082Z,10.70
2023-05-05T22:28:53.190Z,10.71
2023-05-05T22:31:23.351Z,11.04
2023-05-05T22:33:53.469Z,11.03
2023-05-05T22:36:23.648Z,10.99
2023-05-05T22:38:53.819Z,10.84
2023-05-05T22:41:22.279Z,10.66
2023-05-05T22:43:51.022Z,10.65
2023-05-05T22:46:19.127Z,10.55
2023-05-05T22:48:47.561Z,10.48
2023-05-05T22:51:16.560Z,10.30
2023-05-05T22:53:44.567Z,10.14
2023-05-05T22:56:12.844Z,10.10
2023-05-05T22:58:41.409Z,10.03
2023-05-05T23:01:10.023Z,10.07
2023-05-05T23:03:38.269Z,10.10
2023-05-05T23:06:07.312Z,9.94
2023-05-05T23:08:35.512Z,9.82
2023-05-05T23:11:03.901Z,9.98
2023-05-05T23:13:32.277Z,9.88
2023-05-05T23:16:00.736Z,9.86
2023-05-05T23:18:29.192Z,9.89
2023-05-05T23:20:57.683Z,9.77
2023-05-05T23:23:26.087Z,9.69
2023-05-05T23:25:54.602Z,9.56
2023-05-05T23:28:23.049Z,9.40
2023-05-05T23:30:51.437Z,9.31
2023-05-05T23:33:19.898Z,9.30
2023-05-05T23:35:48.610Z,9.26
2023-05-05T23:38:16.701Z,9.23
2023-05-05T23:40:45.382Z,9.14
2023-05-05T23:43:13.783Z,9.17
2023-05-05T23:45:42.354Z,9.21
2023-05-05T23:48:13.022Z,9.19
2023-05-05T23:50:42.491Z,9.15
2023-05-05T23:53:10.598Z,9.05
2023-05-05T23:55:38.969Z,9.13
2023-05-05T23:58:07.452Z,9.09
